Time;durP1;ratioP1;P1;durP2;ratioP2;P2;SDS_P1;SDS_P2;PMS_P1;PMS_P2;Temp;Humidity;BMP_temperature;BMP_pressure;BME280_temperature;BME280_humidity;BME280_pressure;Samples;Min_cycle;Max_cycle;Signal;HPM_P1;HPM_P2
2020/12/24 00:00:57;;;;;;;46.50;27.90;;;;;;;0.72;84.19;100757.50;5031529;28;20025;-67
2020/12/24 00:03:22;;;;;;;58.15;35.25;;;;;;;0.92;84.24;100801.56;5033175;28;20536;-66
2020/12/24 00:05:48;;;;;;;49.30;31.10;;;;;;;1.01;83.88;100810.72;5033230;28;20052;-66
2020/12/24 00:08:13;;;;;;;58.08;34.25;;;;;;;0.99;84.48;100803.03;5033144;28;20074;-67
2020/12/24 00:10:39;;;;;;;52.50;31.52;;;;;;;0.68;85.00;100809.22;5031774;28;20025;-67
2020/12/24 00:13:04;;;;;;;63.95;36.95;;;;;;;0.50;85.88;100802.03;5033018;28;20060;-66
2020/12/24 00:15:30;;;;;;;57.78;32.95;;;;;;;0.37;86.31;100798.16;5032960;28;20064;-67
2020/12/24 00:17:55;;;;;;;60.33;32.78;;;;;;;0.13;86.75;100785.13;5033297;28;20357;-67
2020/12/24 00:20:21;;;;;;;56.45;30.00;;;;;;;-0.05;87.13;100776.22;5031694;28;20532;-66
2020/12/24 00:22:46;;;;;;;55.30;29.65;;;;;;;0.20;87.46;100806.41;5032832;28;20033;-67
2020/12/24 00:25:12;;;;;;;55.17;31.35;;;;;;;-0.07;87.77;100778.03;5032931;28;20492;-67
2020/12/24 00:27:37;;;;;;;62.88;33.45;;;;;;;0.12;88.62;100804.06;5032798;28;20056;-67
2020/12/24 00:30:04;;;;;;;83.32;38.95;;;;;;;0.15;89.54;100803.97;5032888;28;20021;-66
2020/12/24 00:32:30;;;;;;;65.03;33.75;;;;;;;0.22;89.60;100812.38;5032546;28;20497;-67
2020/12/24 00:34:55;;;;;;;58.05;30.88;;;;;;;0.28;88.93;100813.94;5031536;28;20028;-67
2020/12/24 00:37:21;;;;;;;54.88;27.73;;;;;;;0.17;88.67;100804.78;5032579;28;20034;-66
2020/12/24 00:39:46;;;;;;;112.90;32.38;;;;;;;0.14;87.98;100773.13;5031412;28;20030;-67
2020/12/24 00:42:12;;;;;;;85.22;34.13;;;;;;;0.46;87.75;100805.63;5032598;28;20030;-66
2020/12/24 00:44:37;;;;;;;71.95;32.55;;;;;;;0.40;87.95;100813.53;5032893;28;20084;-66
2020/12/24 00:47:03;;;;;;;113.28;38.28;;;;;;;0.21;88.10;100792.66;5032554;28;20033;-66
2020/12/24 00:49:28;;;;;;;89.88;36.45;;;;;;;0.16;88.00;100787.63;5032473;28;20117;-67
2020/12/24 00:51:53;;;;;;;87.90;34.55;;;;;;;0.28;87.80;100786.41;5032643;28;20473;-67
2020/12/24 00:54:19;;;;;;;76.65;35.38;;;;;;;0.41;87.17;100787.72;5032623;28;20512;-66
2020/12/24 00:56:44;;;;;;;67.93;33.47;;;;;;;0.78;86.17;100829.56;5032592;28;20531;-66
2020/12/24 00:59:10;;;;;;;64.35;31.90;;;;;;;0.57;85.17;100795.78;5032294;28;20535;-66
2020/12/24 01:01:35;;;;;;;67.25;32.15;;;;;;;0.94;84.85;100835.88;5064559;28;20025;-66
2020/12/24 01:04:01;;;;;;;73.72;33.38;;;;;;;0.56;84.54;100778.63;5032692;28;20527;-66
2020/12/24 01:06:26;;;;;;;73.57;35.22;;;;;;;0.81;84.84;100832.88;5032392;28;20388;-67
2020/12/24 01:08:52;;;;;;;86.40;37.35;;;;;;;0.29;85.75;100790.66;5032215;28;20477;-67
2020/12/24 01:11:17;;;;;;;75.72;35.75;;;;;;;0.45;86.49;100827.16;5032282;28;20074;-66
2020/12/24 01:13:42;;;;;;;86.85;37.35;;;;;;;0.29;86.76;100795.00;5033405;28;20507;-66
2020/12/24 01:16:09;;;;;;;116.63;40.00;;;;;;;0.18;88.21;100818.53;5036339;28;20057;-68
2020/12/24 01:18:34;;;;;;;129.68;60.10;;;;;;;0.03;88.35;100806.91;5036170;28;20018;-66
2020/12/24 01:21:00;;;;;;;119.57;53.47;;;;;;;-0.29;89.12;100771.81;5036419;28;20052;-66
2020/12/24 01:23:25;;;;;;;92.53;44.10;;;;;;;-0.21;88.58;100758.69;5035880;28;20512;-66
2020/12/24 01:25:50;;;;;;;96.18;43.42;;;;;;;0.05;88.61;100801.72;5036224;28;20030;-66
2020/12/24 01:28:16;;;;;;;91.05;39.47;;;;;;;-0.33;89.07;100755.59;5036383;28;20022;-66
2020/12/24 01:30:41;;;;;;;88.80;39.70;;;;;;;-0.37;88.97;100769.47;5036244;28;20168;-66
2020/12/24 01:33:07;;;;;;;97.65;39.95;;;;;;;-0.35;89.24;100777.97;5036042;28;20501;-66
2020/12/24 01:35:32;;;;;;;85.80;40.28;;;;;;;-0.02;89.07;100801.91;5036133;28;20392;-66
2020/12/24 01:37:58;;;;;;;70.00;36.53;;;;;;;-0.06;87.83;100768.56;5035936;28;20079;-66
2020/12/24 01:40:23;;;;;;;85.72;43.08;;;;;;;-0.13;88.59;100777.38;5036177;28;20021;-66
2020/12/24 01:42:48;;;;;;;85.10;39.40;;;;;;;-0.22;88.85;100768.16;5035836;28;20029;-67
2020/12/24 01:45:14;;;;;;;82.45;37.10;;;;;;;-0.06;88.70;100800.31;5035537;28;20029;-66
2020/12/24 01:47:40;;;;;;;107.00;41.13;;;;;;;-0.20;88.63;100760.38;5035879;28;20040;-66
2020/12/24 01:50:06;;;;;;;103.07;40.05;;;;;;;-0.08;88.88;100785.78;5035747;28;20366;-66
2020/12/24 01:52:35;;;;;;;94.50;41.53;;;;;;;0.09;88.74;100780.97;5035555;28;20469;-67
2020/12/24 01:55:06;;;;;;;79.72;38.10;;;;;;;0.04;87.31;100751.09;5035672;28;20021;-66
2020/12/24 01:57:32;;;;;;;84.85;39.15;;;;;;;0.19;87.38;100784.94;5035918;28;20030;-66
2020/12/24 01:59:57;;;;;;;80.65;37.45;;;;;;;-0.13;87.11;100756.75;5035547;28;20473;-66
2020/12/24 02:02:23;;;;;;;74.88;38.60;;;;;;;-0.11;87.15;100750.63;5035466;28;20079;-66
2020/12/24 02:04:48;;;;;;;84.72;38.17;;;;;;;0.09;87.16;100773.22;5035540;28;20018;-67
2020/12/24 02:07:16;;;;;;;71.53;35.58;;;;;;;0.06;86.30;100772.50;5035610;28;20025;-66
2020/12/24 02:09:45;;;;;;;75.63;36.63;;;;;;;0.15;85.96;100783.38;5036382;28;20029;-67
2020/12/24 02:12:12;;;;;;;67.53;35.15;;;;;;;0.14;85.98;100781.69;5035236;28;20469;-67
2020/12/24 02:14:37;;;;;;;73.88;38.03;;;;;;;0.26;84.84;100766.72;5035379;28;20032;-66
2020/12/24 02:17:03;;;;;;;78.90;37.38;;;;;;;-0.04;84.79;100704.91;5035366;28;20038;-69
2020/12/24 02:19:28;;;;;;;71.57;36.13;;;;;;;0.40;84.68;100761.97;5034280;28;20025;-67
2020/12/24 02:21:53;;;;;;;62.30;32.75;;;;;;;0.21;85.12;100761.72;5033134;28;20040;-67
2020/12/24 02:24:19;;;;;;;60.97;33.50;;;;;;;0.16;85.28;100761.00;5033955;28;20026;-67
2020/12/24 02:26:44;;;;;;;74.63;38.15;;;;;;;0.16;86.06;100761.00;5033270;28;20036;-67
2020/12/24 02:29:10;;;;;;;69.32;35.50;;;;;;;-0.13;85.85;100728.41;5034350;28;20023;-67
2020/12/24 02:31:35;;;;;;;63.45;34.55;;;;;;;-0.13;86.29;100757.59;5034115;28;20072;-67
2020/12/24 02:34:01;;;;;;;63.40;34.10;;;;;;;-0.13;86.73;100756.75;5034464;28;20036;-66
2020/12/24 02:36:26;;;;;;;72.70;37.03;;;;;;;-0.11;86.43;100760.09;5034535;28;20061;-66
2020/12/24 02:38:52;;;;;;;65.97;36.50;;;;;;;-0.14;85.98;100721.56;5034610;28;20022;-66
2020/12/24 02:41:17;;;;;;;59.70;34.15;;;;;;;0.11;85.64;100758.56;5034640;28;20032;-66
2020/12/24 02:43:45;;;;;;;64.95;36.03;;;;;;;0.25;84.87;100752.16;5032710;28;20026;-66
2020/12/24 02:46:12;;;;;;;69.88;37.63;;;;;;;0.06;84.74;100716.63;5032904;28;20116;-67
2020/12/24 02:48:37;;;;;;;64.35;36.60;;;;;;;0.27;85.57;100747.78;5031593;28;20084;-67
2020/12/24 02:51:03;;;;;;;67.35;35.45;;;;;;;-0.13;85.82;100702.66;5032733;28;20037;-67
2020/12/24 02:53:28;;;;;;;67.93;36.22;;;;;;;-0.15;86.40;100723.28;5033067;28;20032;-66
2020/12/24 02:55:55;;;;;;;73.28;38.97;;;;;;;-0.18;86.86;100736.25;5033186;28;20397;-67
2020/12/24 02:58:21;;;;;;;73.90;37.60;;;;;;;-0.12;87.10;100753.28;5032780;28;20124;-68
2020/12/24 03:00:47;;;;;;;73.90;38.72;;;;;;;-0.09;86.75;100742.88;5031630;28;20079;-66
2020/12/24 03:03:12;;;;;;;64.65;35.47;;;;;;;-0.15;86.48;100696.69;5032654;28;20492;-67
2020/12/24 03:05:38;;;;;;;62.83;33.10;;;;;;;0.07;85.80;100715.75;5032558;28;20382;-67
2020/12/24 03:08:03;;;;;;;64.85;35.63;;;;;;;0.35;85.63;100744.06;5032757;28;20017;-66
2020/12/24 03:10:28;;;;;;;62.28;37.13;;;;;;;0.23;85.96;100729.81;5034701;28;20112;-66
2020/12/24 03:12:54;;;;;;;61.78;34.90;;;;;;;0.26;85.53;100730.63;5034374;28;20112;-67
2020/12/24 03:15:19;;;;;;;63.55;34.47;;;;;;;0.38;85.35;100746.56;5032902;28;20025;-66
2020/12/24 03:17:45;;;;;;;78.70;40.00;;;;;;;0.57;85.17;100764.00;5034292;28;20033;-66
2020/12/24 03:20:10;;;;;;;68.53;37.40;;;;;;;0.60;85.35;100764.75;5033770;28;20036;-66
2020/12/24 03:22:37;;;;;;;72.03;37.72;;;;;;;0.30;86.07;100740.78;5034033;28;20100;-66
2020/12/24 03:25:03;;;;;;;66.65;36.17;;;;;;;0.37;86.27;100770.66;5033933;28;20028;-66
2020/12/24 03:27:29;;;;;;;81.28;37.90;;;;;;;0.25;86.83;100759.88;5033999;28;20025;-66
2020/12/24 03:29:55;;;;;;;81.95;40.35;;;;;;;0.12;87.10;100744.78;5033995;28;20120;-66
2020/12/24 03:32:20;;;;;;;68.13;35.35;;;;;;;0.06;87.77;100754.44;5033784;28;20053;-67
2020/12/24 03:34:46;;;;;;;77.75;38.92;;;;;;;0.23;87.62;100780.53;5033963;28;20404;-66
2020/12/24 03:37:12;;;;;;;77.47;38.75;;;;;;;0.43;86.82;100785.06;5032729;28;20030;-66
2020/12/24 03:39:37;;;;;;;82.25;37.10;;;;;;;0.32;87.20;100766.53;5034014;28;20025;-66
2020/12/24 03:42:03;;;;;;;108.50;43.83;;;;;;;0.04;89.17;100761.41;5033673;28;20034;-66
2020/12/24 03:44:28;;;;;;;155.95;46.63;;;;;;;-0.01;90.35;100788.13;5033663;28;20025;-66
2020/12/24 03:46:53;;;;;;;202.07;53.83;;;;;;;-0.34;92.50;100740.19;5033275;28;20477;-66
2020/12/24 03:49:19;;;;;;;185.15;51.35;;;;;;;-0.26;94.17;100764.00;5033609;28;20026;-66
2020/12/24 03:51:44;;;;;;;243.52;59.75;;;;;;;-0.71;95.33;100705.19;5033540;28;20029;-66
2020/12/24 03:54:10;;;;;;;146.45;48.05;;;;;;;-0.33;96.12;100767.63;5033416;28;20041;-66
2020/12/24 03:56:35;;;;;;;186.50;51.83;;;;;;;-0.43;98.40;100755.91;5033820;28;20405;-66
2020/12/24 03:59:01;;;;;;;264.73;54.22;;;;;;;-0.42;99.32;100760.16;5033334;28;20033;-66
2020/12/24 04:01:26;;;;;;;216.60;55.58;;;;;;;-0.66;99.82;100723.94;5033267;28;20029;-66
2020/12/24 04:03:52;;;;;;;243.23;56.70;;;;;;;-0.61;100.00;100728.94;5033185;28;20036;-66
2020/12/24 04:06:18;;;;;;;226.65;55.47;;;;;;;-0.72;100.00;100700.94;5031964;28;20025;-66
2020/12/24 04:08:43;;;;;;;203.93;54.45;;;;;;;-0.50;100.00;100722.63;5033174;28;20041;-66
2020/12/24 04:11:09;;;;;;;297.20;68.18;;;;;;;-0.45;100.00;100719.88;5033269;28;20029;-66
2020/12/24 04:13:34;;;;;;;213.05;57.63;;;;;;;-0.18;100.00;100750.88;5031689;28;20032;-67
2020/12/24 04:15:59;;;;;;;197.23;57.60;;;;;;;-0.21;100.00;100730.34;5033166;28;20029;-66
2020/12/24 04:18:25;;;;;;;328.80;58.63;;;;;;;0.15;100.00;100767.91;5032921;28;20399;-66
2020/12/24 04:20:50;;;;;;;160.50;46.63;;;;;;;0.27;100.00;100766.69;5033056;28;20052;-67
2020/12/24 04:23:16;;;;;;;147.18;48.20;;;;;;;0.22;100.00;100777.13;5031965;28;20588;-66
2020/12/24 04:25:41;;;;;;;205.40;45.13;;;;;;;0.19;100.00;100766.91;5032904;28;20043;-66
2020/12/24 04:28:07;;;;;;;210.30;46.17;;;;;;;0.38;99.97;100768.91;5032685;28;20030;-66
2020/12/24 04:30:32;;;;;;;186.23;44.42;;;;;;;0.20;99.47;100740.25;5032785;28;20057;-67
2020/12/24 04:32:58;;;;;;;116.82;42.20;;;;;;;0.45;98.61;100770.41;5033105;28;20132;-66
2020/12/24 04:35:23;;;;;;;123.15;32.92;;;;;;;0.51;97.43;100792.56;5032884;28;20468;-66
2020/12/24 04:37:50;;;;;;;67.70;30.65;;;;;;;0.38;96.49;100754.28;5032984;28;20029;-66
2020/12/24 04:40:16;;;;;;;103.78;31.70;;;;;;;0.49;95.56;100777.16;5032663;28;20026;-66
2020/12/24 04:42:42;;;;;;;79.65;30.08;;;;;;;0.02;95.10;100720.19;5032674;28;20084;-66
2020/12/24 04:45:08;;;;;;;98.15;30.15;;;;;;;0.23;95.62;100781.38;5032799;28;20040;-66
2020/12/24 04:47:37;;;;;;;110.40;35.67;;;;;;;0.04;96.31;100753.66;5031021;28;20041;-67
2020/12/24 04:50:02;;;;;;;96.60;35.65;;;;;;;-0.02;96.49;100734.91;5032452;28;20025;-66
2020/12/24 04:52:29;;;;;;;126.18;37.72;;;;;;;0.06;96.90;100757.84;5032687;28;20022;-66
2020/12/24 04:54:56;;;;;;;89.65;33.65;;;;;;;0.11;97.19;100762.91;5032870;28;20029;-66
2020/12/24 04:57:22;;;;;;;188.68;32.97;;;;;;;0.10;95.62;100762.06;5031128;28;20037;-66
2020/12/24 04:59:48;;;;;;;160.05;33.95;;;;;;;0.17;95.86;100754.94;5032250;28;20071;-67
2020/12/24 05:02:14;;;;;;;105.00;33.15;;;;;;;-0.02;95.42;100716.88;5032375;28;20503;-66
2020/12/24 05:04:40;;;;;;;137.93;31.15;;;;;;;0.40;94.47;100757.66;5032772;28;20029;-66
2020/12/24 05:07:07;;;;;;;108.70;26.83;;;;;;;0.34;93.59;100721.75;5031612;28;20087;-66
2020/12/24 05:09:34;;;;;;;84.10;28.00;;;;;;;0.42;93.86;100755.03;5032170;28;20029;-66
2020/12/24 05:12:00;;;;;;;66.78;27.42;;;;;;;0.46;93.65;100756.63;5032344;28;20068;-66
2020/12/24 05:14:28;;;;;;;54.63;29.02;;;;;;;0.43;93.55;100752.38;5032137;28;20052;-67
2020/12/24 05:16:57;;;;;;;48.38;27.55;;;;;;;0.48;92.99;100765.16;5031963;28;20021;-66
2020/12/24 05:19:24;;;;;;;43.67;25.73;;;;;;;0.58;91.73;100755.38;5032226;28;20026;-66
2020/12/24 05:21:49;;;;;;;40.58;23.15;;;;;;;0.69;90.93;100748.97;5031042;28;20111;-66
2020/12/24 05:24:35;;;;;;;49.58;24.80;;;;;;;0.83;89.44;100752.81;5032072;28;20481;-66
2020/12/24 05:27:20;;;;;;;46.17;24.50;;;;;;;0.85;88.24;100741.56;5031850;28;20045;-66
2020/12/24 05:29:48;;;;;;;41.38;23.85;;;;;;;0.95;87.03;100747.25;5030902;28;20026;-66
2020/12/24 05:32:14;;;;;;;44.25;24.00;;;;;;;1.00;86.19;100737.59;5031400;28;20057;-66
2020/12/24 05:34:40;;;;;;;51.60;24.33;;;;;;;1.13;85.17;100744.00;5031977;28;20022;-68
2020/12/24 05:37:14;;;;;;;46.42;27.15;;;;;;;1.15;85.13;100747.41;5032095;28;20378;-66
2020/12/24 05:39:41;;;;;;;81.55;35.15;;;;;;;1.00;84.99;100711.78;5031984;28;20030;-66
2020/12/24 05:42:07;;;;;;;82.10;31.85;;;;;;;1.20;85.62;100754.13;5031993;28;20028;-66
2020/12/24 05:44:33;;;;;;;90.90;32.65;;;;;;;0.87;85.90;100716.53;5030460;28;20037;-66
2020/12/24 05:46:58;;;;;;;106.35;34.90;;;;;;;0.74;87.09;100740.22;5030585;28;20120;-66
2020/12/24 05:49:26;;;;;;;98.35;36.63;;;;;;;0.65;87.68;100747.38;5030635;28;20156;-66
2020/12/24 05:51:58;;;;;;;80.90;38.30;;;;;;;0.49;89.02;100761.69;5031934;28;20030;-66
2020/12/24 05:54:29;;;;;;;87.63;39.58;;;;;;;0.26;89.37;100734.03;5031907;28;20076;-66
2020/12/24 05:56:55;;;;;;;;;;;;;;;0.27;90.42;100760.66;5032552;28;20029;-66
2020/12/24 05:59:24;;;;;;;84.32;40.95;;;;;;;0.22;90.81;100753.91;5032381;28;19909;-66
2020/12/24 06:02:14;;;;;;;94.70;46.55;;;;;;;0.31;90.64;100762.28;5034282;28;20095;-66
2020/12/24 06:04:45;;;;;;;109.53;48.55;;;;;;;0.18;90.74;100766.97;5035398;28;20026;-66
2020/12/24 06:07:13;;;;;;;105.82;48.88;;;;;;;0.01;91.21;100728.81;5035264;28;20393;-66
2020/12/24 06:09:41;;;;;;;103.55;47.58;;;;;;;0.40;91.00;100777.44;5035441;28;20025;-66
2020/12/24 06:12:17;;;;;;;89.43;45.63;;;;;;;0.27;90.36;100740.91;5035428;28;20040;-66
2020/12/24 06:14:47;;;;;;;102.32;50.63;;;;;;;0.31;90.90;100757.97;5035272;28;20034;-66
2020/12/24 06:17:14;;;;;;;109.00;55.35;;;;;;;0.44;91.00;100764.41;5035491;28;20034;-66
2020/12/24 06:19:40;;;;;;;120.25;59.78;;;;;;;0.21;91.67;100757.41;5038334;28;20029;-67
2020/12/24 06:22:07;;;;;;;112.43;62.20;;;;;;;0.02;93.12;100740.81;5055108;28;20496;-66
2020/12/24 06:24:35;;;;;;;113.03;59.08;;;;;;;0.26;93.65;100767.56;5055061;28;20139;-66
2020/12/24 06:27:09;;;;;;;106.13;56.17;;;;;;;0.18;93.23;100754.06;5051319;28;20025;-68
2020/12/24 06:29:39;;;;;;;98.60;54.80;;;;;;;0.25;93.49;100765.03;5041256;28;20026;-67
2020/12/24 06:32:07;;;;;;;106.00;58.35;;;;;;;0.29;93.46;100776.94;5043170;28;20073;-66
2020/12/24 06:34:37;;;;;;;105.50;61.42;;;;;;;0.22;93.30;100768.56;5040229;28;20544;-66
2020/12/24 06:37:17;;;;;;;102.82;54.08;;;;;;;0.02;93.74;100733.06;5034829;28;20103;-66
2020/12/24 06:39:51;;;;;;;151.55;91.22;;;;;;;0.28;93.99;100783.00;5033233;28;20493;-66
2020/12/24 06:42:35;;;;;;;154.93;98.28;;;;;;;0.32;94.49;100775.09;5035063;28;20424;-66
2020/12/24 06:45:01;;;;;;;113.18;65.32;;;;;;;0.31;94.51;100772.59;5033444;28;20036;-66
2020/12/24 06:47:26;;;;;;;107.45;60.00;;;;;;;0.15;94.51;100742.13;5034504;28;20029;-66
2020/12/24 06:49:51;;;;;;;109.35;55.28;;;;;;;0.33;94.90;100770.78;5034508;28;20033;-66
2020/12/24 06:52:30;;;;;;;122.03;57.33;;;;;;;0.30;95.13;100771.72;5021757;28;20523;-68
2020/12/24 06:55:12;;;;;;;100.80;51.95;;;;;;;0.18;96.03;100733.47;5022134;28;20034;-68
2020/12/24 06:57:38;;;;;;;114.07;53.35;;;;;;;0.43;95.98;100767.88;5022997;28;20026;-67
2020/12/24 07:00:21;;;;;;;113.90;51.85;;;;;;;0.47;96.17;100778.91;5023097;28;20044;-67
2020/12/24 07:02:48;;;;;;;128.40;55.63;;;;;;;0.54;95.46;100771.84;5023222;28;20037;-69
2020/12/24 07:05:41;;;;;;;125.15;58.80;;;;;;;0.58;96.46;100774.28;5023198;28;20038;-68
2020/12/24 07:08:07;;;;;;;142.70;58.17;;;;;;;0.35;96.52;100733.75;5019091;28;20102;-67
2020/12/24 07:10:53;;;;;;;136.80;59.08;;;;;;;0.65;97.00;100767.19;5015586;28;20071;-67
2020/12/24 07:13:38;;;;;;;125.45;56.78;;;;;;;0.77;96.96;100771.09;5025606;28;20038;-67
2020/12/24 07:16:08;;;;;;;140.85;57.42;;;;;;;0.75;96.36;100776.31;5023284;28;20774;-65
2020/12/24 07:18:38;;;;;;;188.98;63.88;;;;;;;0.66;96.48;100737.91;5019841;28;20033;-70
2020/12/24 07:21:09;;;;;;;144.80;61.22;;;;;;;0.87;96.59;100765.56;5029208;28;20052;-66
2020/12/24 07:23:35;;;;;;;;;;;;;;;0.91;96.86;100754.25;5023878;28;20029;-67
2020/12/24 07:26:07;;;;;;;129.18;59.38;;;;;;;0.64;96.91;100698.41;5023677;28;19944;-68
2020/12/24 07:28:34;;;;;;;115.75;52.67;;;;;;;0.95;96.99;100729.19;5014978;28;20029;-68
2020/12/24 07:31:04;;;;;;;105.63;51.63;;;;;;;1.10;97.23;100732.97;5023518;28;20556;-68
2020/12/24 07:33:30;;;;;;;71.35;36.63;;;;;;;1.54;97.43;100761.50;5016336;28;20056;-68
2020/12/24 07:35:56;;;;;;;103.63;49.10;;;;;;;1.78;98.09;100758.00;5020337;28;20420;-69
2020/12/24 07:38:27;;;;;;;77.63;38.97;;;;;;;1.88;97.14;100750.75;5015262;28;20032;-69
2020/12/24 07:40:53;;;;;;;56.58;28.90;;;;;;;2.19;95.41;100767.66;5051606;28;20026;-69
2020/12/24 07:43:19;;;;;;;45.95;22.95;;;;;;;2.19;93.97;100739.22;5017898;28;20033;-68
2020/12/24 07:45:45;;;;;;;41.22;24.48;;;;;;;2.32;92.83;100766.28;5022271;28;20083;-69
2020/12/24 07:48:16;;;;;;;45.15;25.58;;;;;;;2.26;92.02;100738.06;5023366;28;20168;-67
2020/12/24 07:50:43;;;;;;;50.45;27.45;;;;;;;2.35;92.09;100737.69;5020503;28;20924;-69
2020/12/24 07:53:09;;;;;;;46.45;26.38;;;;;;;2.47;92.21;100739.81;5024183;28;20017;-67
2020/12/24 07:55:35;;;;;;;54.67;29.48;;;;;;;2.23;92.49;100736.47;5019245;28;20513;-66
2020/12/24 07:58:08;;;;;;;66.85;30.60;;;;;;;2.15;92.95;100709.22;5026358;28;20021;-65
2020/12/24 08:00:46;;;;;;;60.30;31.98;;;;;;;2.83;95.16;100765.91;5021018;28;20103;-66
2020/12/24 08:03:15;;;;;;;47.92;30.02;;;;;;;2.66;92.91;100732.09;5024222;28;20436;-67
2020/12/24 08:05:44;;;;;;;54.20;33.58;;;;;;;2.62;93.34;100740.91;5020256;28;20485;-68
2020/12/24 08:08:10;;;;;;;43.70;24.77;;;;;;;2.84;91.54;100765.00;5025301;28;20025;-67
2020/12/24 08:10:38;;;;;;;48.58;27.75;;;;;;;2.88;92.29;100755.34;5021039;28;20029;-67
2020/12/24 08:13:05;;;;;;;42.17;25.02;;;;;;;2.98;91.62;100759.25;5025838;28;20025;-67
2020/12/24 08:15:38;;;;;;;45.20;27.02;;;;;;;2.82;92.14;100730.56;5022471;28;20095;-66
2020/12/24 08:18:05;;;;;;;42.55;27.30;;;;;;;3.25;92.77;100759.81;5024310;28;20037;-68
2020/12/24 08:20:58;;;;;;;35.17;23.98;;;;;;;3.41;91.15;100761.69;5018714;28;20041;-67
2020/12/24 08:23:44;;;;;;;33.83;21.48;;;;;;;3.46;90.28;100758.00;5022455;28;20037;-67
2020/12/24 08:26:17;;;;;;;39.25;23.50;;;;;;;3.33;91.13;100754.28;5023773;28;20025;-66
2020/12/24 08:28:50;;;;;;;35.88;23.65;;;;;;;3.63;90.61;100740.88;5022542;28;20036;-67
2020/12/24 08:31:18;;;;;;;37.28;22.25;;;;;;;3.90;89.77;100744.78;5026480;28;20068;-69
2020/12/24 08:33:49;;;;;;;36.28;23.52;;;;;;;3.86;89.47;100745.84;5018964;28;20034;-66
2020/12/24 08:36:16;;;;;;;44.10;26.23;;;;;;;3.84;90.70;100706.16;5015678;28;20440;-68
2020/12/24 08:38:42;;;;;;;43.25;26.27;;;;;;;4.20;89.90;100744.25;5017742;28;20025;-68
2020/12/24 08:41:19;;;;;;;44.95;25.65;;;;;;;4.17;89.44;100710.66;5018661;28;20040;-69
2020/12/24 08:43:53;;;;;;;44.80;27.05;;;;;;;4.42;89.29;100739.72;5017983;28;20500;-69
2020/12/24 08:46:19;;;;;;;41.65;26.50;;;;;;;4.32;89.14;100698.69;5019533;28;20547;-68
2020/12/24 08:48:45;;;;;;;46.63;26.05;;;;;;;4.56;90.79;100722.63;5018075;28;20037;-67
2020/12/24 08:51:15;;;;;;;38.90;25.13;;;;;;;4.78;88.97;100728.41;5027606;28;20030;-67
2020/12/24 08:53:41;;;;;;;44.28;27.20;;;;;;;4.83;88.48;100697.84;5024870;28;20106;-67
2020/12/24 08:56:14;;;;;;;57.05;30.50;;;;;;;5.33;87.31;100729.91;5015013;28;20786;-67
2020/12/24 08:59:07;;;;;;;60.83;33.30;;;;;;;5.49;86.39;100733.38;5022778;28;20459;-68
2020/12/24 09:01:38;;;;;;;55.08;30.73;;;;;;;5.48;85.93;100723.91;5020908;28;20520;-67
2020/12/24 09:04:17;;;;;;;49.17;30.08;;;;;;;5.41;85.71;100722.56;5024876;28;20497;-67
2020/12/24 09:06:44;;;;;;;55.40;31.55;;;;;;;5.30;86.19;100699.75;5017573;28;20181;-68
2020/12/24 09:09:26;;;;;;;56.00;29.48;;;;;;;5.37;86.35;100682.91;5013250;28;20068;-68
2020/12/24 09:11:53;;;;;;;78.97;47.45;;;;;;;5.16;87.67;100681.41;5019130;28;20035;-68
2020/12/24 09:14:21;;;;;;;49.67;28.25;;;;;;;5.37;87.28;100682.91;5015837;28;20036;-67
2020/12/24 09:16:58;;;;;;;53.63;29.92;;;;;;;5.25;87.89;100696.53;5023042;28;20053;-68
2020/12/24 09:19:25;;;;;;;54.13;29.52;;;;;;;5.14;87.45;100652.94;5009707;28;20030;-69
2020/12/24 09:21:57;;;;;;;62.67;34.22;;;;;;;5.31;87.38;100695.38;5015191;28;20041;-69
2020/12/24 09:24:24;;;;;;;60.45;33.78;;;;;;;4.97;89.06;100661.63;5011805;28;20052;-68
2020/12/24 09:26:52;;;;;;;50.80;29.95;;;;;;;5.17;88.77;100680.53;5009395;28;20559;-70
2020/12/24 09:29:20;;;;;;;50.33;30.08;;;;;;;5.18;89.43;100672.63;5007652;28;20037;-67
2020/12/24 09:31:53;;;;;;;55.25;32.58;;;;;;;5.21;89.40;100675.06;5006644;28;20052;-69
2020/12/24 09:34:18;;;;;;;54.20;32.10;;;;;;;5.22;89.11;100644.72;5026878;28;20033;-68
2020/12/24 09:36:46;;;;;;;51.90;29.85;;;;;;;5.49;88.49;100672.75;5023847;28;20087;-66
2020/12/24 09:39:12;;;;;;;51.20;31.42;;;;;;;5.40;88.90;100648.06;5011515;28;20030;-67
2020/12/24 09:41:42;;;;;;;45.38;28.90;;;;;;;5.69;88.92;100643.91;5015239;28;20037;-67
2020/12/24 09:44:07;;;;;;;43.47;26.20;;;;;;;6.06;88.22;100623.66;5026438;28;20555;-68
2020/12/24 09:46:33;;;;;;;47.90;31.65;;;;;;;6.48;88.43;100650.69;5020710;28;20072;-67
2020/12/24 09:48:58;;;;;;;35.95;23.75;;;;;;;6.80;86.19;100654.00;5026094;28;20090;-68
2020/12/24 09:51:24;;;;;;;34.75;21.95;;;;;;;7.14;85.35;100663.22;5025206;28;20029;-67
2020/12/24 09:53:49;;;;;;;74.90;50.50;;;;;;;6.95;83.15;100627.03;5023872;28;20110;-67
2020/12/24 09:56:19;;;;;;;49.63;32.85;;;;;;;7.27;84.70;100652.88;5023697;28;20502;-67
2020/12/24 09:58:44;;;;;;;51.58;33.92;;;;;;;7.38;85.51;100641.78;5023172;28;20033;-70
2020/12/24 10:01:10;;;;;;;50.55;33.58;;;;;;;7.53;83.20;100638.22;5024932;28;20471;-69
2020/12/24 10:03:35;;;;;;;62.95;42.00;;;;;;;7.46;83.97;100608.22;5014541;28;20472;-68
2020/12/24 10:06:01;;;;;;;47.03;31.30;;;;;;;7.70;82.90;100634.53;5017388;28;20038;-70
2020/12/24 10:08:26;;;;;;;53.75;35.10;;;;;;;7.60;82.88;100610.81;5024395;28;20030;-67
2020/12/24 10:10:52;;;;;;;55.90;35.55;;;;;;;7.93;83.25;100635.66;5023054;28;20054;-66
2020/12/24 10:13:17;;;;;;;53.40;36.30;;;;;;;7.61;81.72;100588.16;5022855;28;20030;-65
2020/12/24 10:15:44;;;;;;;51.17;34.92;;;;;;;7.90;82.49;100621.06;5025228;28;20033;-66
2020/12/24 10:18:10;;;;;;;57.28;37.25;;;;;;;7.49;82.37;100589.78;5024702;28;20045;-69
2020/12/24 10:20:36;;;;;;;61.55;40.72;;;;;;;7.84;81.98;100621.44;5027363;28;20033;-68
2020/12/24 10:23:01;;;;;;;52.05;32.63;;;;;;;7.89;81.40;100618.53;5022014;28;20172;-67
2020/12/24 10:25:26;;;;;;;57.35;37.30;;;;;;;7.78;81.86;100596.56;5027570;28;20029;-67
2020/12/24 10:27:52;;;;;;;47.67;31.80;;;;;;;8.00;81.55;100624.72;5021092;28;20033;-67
2020/12/24 10:30:17;;;;;;;49.83;31.88;;;;;;;7.97;81.59;100613.66;5028531;28;20126;-66
2020/12/24 10:32:43;;;;;;;49.30;30.38;;;;;;;7.98;82.15;100617.94;5017742;28;20073;-67
2020/12/24 10:35:08;;;;;;;55.17;33.03;;;;;;;7.45;82.36;100515.28;5027735;28;20409;-67
2020/12/24 10:37:34;;;;;;;48.47;31.63;;;;;;;8.08;82.14;100603.34;5023901;28;20026;-66
2020/12/24 10:39:59;;;;;;;53.55;33.85;;;;;;;8.05;83.01;100593.94;5022019;28;20018;-68
2020/12/24 10:42:25;;;;;;;45.80;29.52;;;;;;;7.95;81.53;100566.75;5038839;28;20041;-67
2020/12/24 10:44:50;;;;;;;43.97;30.05;;;;;;;8.15;81.34;100578.50;5026178;28;20033;-67
2020/12/24 10:47:16;;;;;;;45.67;31.58;;;;;;;8.07;80.62;100541.63;5021378;28;20034;-68
2020/12/24 10:49:41;;;;;;;46.45;32.72;;;;;;;8.33;81.07;100570.34;5022582;28;20034;-68
2020/12/24 10:52:11;;;;;;;50.78;32.45;;;;;;;8.54;80.65;100541.97;5023548;28;20030;-67
2020/12/24 10:54:36;;;;;;;51.15;37.25;;;;;;;8.25;80.70;100505.59;5028217;28;20060;-71
2020/12/24 10:57:01;;;;;;;41.15;27.70;;;;;;;8.59;79.87;100525.03;5027401;28;20029;-69
2020/12/24 10:59:27;;;;;;;40.17;26.20;;;;;;;9.01;78.39;100556.09;5024898;28;20037;-69
2020/12/24 11:01:52;;;;;;;48.13;30.13;;;;;;;9.02;79.68;100552.56;5024973;28;20116;-68
2020/12/24 11:04:19;;;;;;;38.00;27.23;;;;;;;8.87;78.92;100517.88;5017621;28;20037;-67
2020/12/24 11:06:45;;;;;;;38.88;26.85;;;;;;;9.15;78.81;100527.22;5027635;28;20456;-68
2020/12/24 11:09:12;;;;;;;44.25;29.40;;;;;;;9.18;77.40;100527.00;5017951;28;20072;-68
2020/12/24 11:11:38;;;;;;;34.53;24.85;;;;;;;9.08;78.32;100500.69;5023825;28;20116;-68
2020/12/24 11:14:04;;;;;;;36.30;26.10;;;;;;;9.36;78.33;100520.44;5021154;28;20022;-67
2020/12/24 11:16:30;;;;;;;37.45;26.35;;;;;;;9.52;76.68;100499.22;5024636;28;20045;-66